• Join FlightAware (Why Join?)
  • Login
  • US Flag 
02:21AM EDT


 

Airport Tracker/Info


-or-


 

Live Flight TrackerFlight Track Log ✈ SWA2182 ✈ 16-Apr-2013 ✈ KSMF - KSAN

Flight Track Log - Related Links

Times and Time Zones

All times are in EDT time to prevent confusion due to time zone crossing. See the SWA2182 flight status page for this flight to view local times or setup timezone preferences in your user account.

Time Position Orientation Groundspeed Altitude Reporting Facility
EDT Latitude Longitude Course Direction KTS MPH feet Rate Location/Type
09:17AM 38.7167 -121.5667 142° Southeast 177 204 3,500  Level Northern Cal TRACON
09:18AM 38.6833 -121.5333 142° Southeast 213 245 7,200 3,000 Climbing Northern Cal TRACON
09:19AM 38.6333 -121.4500 128° Southeast 273 314 9,500 2,880 Climbing Northern Cal TRACON
09:21AM 38.5758 -121.3353 123° Southeast 313 360 14,200 3,480 Climbing Oakland Center
09:22AM 38.5244 -121.2336 123° Southeast 333 383 18,100 3,480 Climbing Oakland Center
09:23AM 38.4575 -121.1094 125° Southeast 388 447 21,300 2,940 Climbing Oakland Center
09:24AM 38.3908 -120.9817 124° Southeast 433 498 24,100 2,640 Climbing Oakland Center
09:25AM 38.3197 -120.8486 124° Southeast 452 520 26,700 2,340 Climbing Oakland Center
09:26AM 38.2317 -120.7231 132° Southeast 484 557 28,900 1,140 Climbing Oakland Center
09:27AM 38.1086 -120.6525 156° South 483 556 29,100 960 Climbing Oakland Center
09:28AM 37.9803 -120.5811 156° South 498 573 30,900 2,100 Climbing Oakland Center
09:29AM 37.8494 -120.5075 156° South 511 588 33,400 2,520 Climbing Oakland Center
09:30AM 37.7211 -120.4356 156° South 504 580 36,000 1,920 Climbing Oakland Center
09:31AM 37.5944 -120.3650 156° South 497 572 37,400 1,140 Climbing Oakland Center
09:32AM 37.4672 -120.2939 156° South 499 574 38,300 840 Climbing Oakland Center
09:33AM 37.3375 -120.2247 157° South 504 580 39,200 840 Climbing Oakland Center
09:34AM 37.2150 -120.1575 156° South 480 552 40,100 840 Climbing Oakland Center
09:35AM 37.0811 -120.0842 156° South 476 548 41,000 420 Climbing Oakland Center
09:36AM 36.9639 -120.0206 157° South 483 556 41,000  Level Oakland Center
09:37AM 36.8406 -119.9528 156° South 482 555 41,000  Level Oakland Center
09:38AM 36.7164 -119.8833 156° South 488 562 41,000  Level Oakland Center
09:39AM 36.5947 -119.8172 156° South 479 551 41,000  Level Oakland Center
09:40AM 36.4711 -119.7511 157° South 482 555 41,000  Level Oakland Center
09:41AM 36.3489 -119.6853 157° South 479 551 41,000  Level Oakland Center
09:42AM 36.2264 -119.6197 157° South 477 549 41,000  Level Oakland Center
09:43AM 36.1050 -119.5553 157° South 475 547 41,000  Level Oakland Center
09:44AM 35.9839 -119.4911 157° South 473 544 41,000  Level Oakland Center
09:45AM 35.8656 -119.4292 157° South 463 533 41,000  Level Oakland Center
09:46AM 35.7169 -119.3506 157° South 476 548 41,000  Level Oakland Center
09:47AM 35.5706 -119.2739 157° South 473 544 41,000  Level Los Angeles Center
09:48AM 35.4481 -119.2097 157° South 474 545 41,000  Level Los Angeles Center
09:49AM 35.3256 -119.1464 157° South 476 548 41,000  Level Los Angeles Center
09:50AM 35.2039 -119.0825 157° South 474 545 41,000  Level Los Angeles Center
09:51AM 35.0836 -119.0200 157° South 469 540 41,000  Level Los Angeles Center
09:52AM 34.9622 -118.9572 157° South 471 542 41,000  Level Los Angeles Center
09:53AM 34.8317 -118.8897 157° South 473 544 41,000  Level Los Angeles Center
09:54AM 34.7125 -118.8283 157° South 469 540 41,000  Level Los Angeles Center
09:55AM 34.5928 -118.7678 157° South 467 537 41,000  Level Los Angeles Center
09:56AM 34.4731 -118.7058 157° South 467 537 41,000  Level Los Angeles Center
09:57AM 34.3531 -118.6469 158° South 467 537 41,000  Level Los Angeles Center
09:58AM 34.2336 -118.5861 157° South 467 537 41,000  Level Los Angeles Center
09:59AM 34.0922 -118.5128 157° South 462 532 41,000 -1,320 Level Los Angeles Center
10:01AM 33.9728 -118.4519 157° South 465 535 38,400 -2,700 Descending Los Angeles Center
10:02AM 33.8642 -118.3439 140° Southeast 508 585 35,500 -3,060 Descending Los Angeles Center
10:03AM 33.7639 -118.2200 134° Southeast 508 585 32,200 -2,880 Descending Los Angeles Center
10:04AM 33.6667 -118.0906 132° Southeast 502 578 29,700 -2,400 Descending Los Angeles Center
10:05AM 33.5758 -117.9761 134° Southeast 475 547 27,400 -2,340 Descending Los Angeles Center
10:06AM 33.4897 -117.8672 133° Southeast 451 519 25,000 -2,520 Descending Los Angeles Center
10:06AM 33.4333 -117.8000 135° Southeast 432 497 23,500 -2,820 Descending Southern California TRACON
10:07AM 33.3667 -117.7000 129° Southeast 435 501 21,000 -2,460 Descending Southern California TRACON
10:08AM 33.3222 -117.6569 141° Southeast 432 497 19,800 -2,400 Descending Los Angeles Center
10:08AM 33.2833 -117.6000 129° Southeast 420 483 18,600 -1,620 Descending Southern California TRACON
10:09AM 33.2000 -117.5333 146° Southeast 409 471 17,600 -1,020 Descending Southern California TRACON
10:10AM 33.1000 -117.4667 151° Southeast 400 460 16,700 -1,020 Descending Southern California TRACON
10:11AM 33.0339 -117.4122 145° Southeast 390 449 15,900 -1,260 Descending Los Angeles Center
10:12AM 32.9436 -117.3450 148° Southeast 385 443 14,400 -2,040 Descending Los Angeles Center
10:13AM 32.8553 -117.2778 147° Southeast 379 436 11,800 -1,860 Descending Los Angeles Center
10:14AM 32.8239 -117.1622 108° East 370 426 10,600 -1,380 Descending Los Angeles Center
10:15AM 32.8000 -117.0333 102° East 324 373 8,900 -1,440 Descending Southern California TRACON
10:16AM 32.7833 -116.9333 101° East 314 361 7,600 -1,020 Descending Southern California TRACON
10:17AM 32.7500 -116.8500 115° Southeast 283 326 7,000 -840 Descending Southern California TRACON
10:18AM 32.7167 -116.7833 121° Southeast 236 272 6,100 -960 Descending Southern California TRACON
10:19AM 32.6500 -116.7833 180° South 227 261 5,000 -600 Descending Southern California TRACON
10:20AM 32.6500 -116.8333 270° West 190 219 5,000 -120 Level Southern California TRACON
10:21AM 32.6667 -116.9000 287° West 188 216 4,800 -360 Descending Southern California TRACON
10:22AM 32.6667 -116.9500 270° West 161 185 4,300 -780 Descending Southern California TRACON
10:23AM 32.6833 -117.0000 292° West 164 189 3,300 -1,020 Descending Southern California TRACON
10:24AM 32.7000 -117.0500 292° West 163 188 2,300 -900 Descending Southern California TRACON
10:25AM 32.7167 -117.1000 292° West 146 168 1,500 -840 Descending Southern California TRACON
10:26AM 32.7167 -117.1333 270° West 125 144 700 -720 Descending Southern California TRACON
10:26AM 32.7239 -117.1469 302° West 138 159 600 -300 Descending Los Angeles Center
10:27AM 32.7331 -117.1844 286° West 135 155 300 -300 Descending Los Angeles Center